Time;durP1;ratioP1;P1;durP2;ratioP2;P2;SDS_P1;SDS_P2;PMS_P1;PMS_P2;Temp;Humidity;BMP_temperature;BMP_pressure;BME280_temperature;BME280_humidity;BME280_pressure;Samples;Min_cycle;Max_cycle;Signal;HPM_P1;HPM_P2
2021/09/06 00:00:23;;;;;;;6.78;2.50;;;12.20;74.40;;;;;;5028992;28;20031;-67
2021/09/06 00:02:49;;;;;;;6.45;1.67;;;12.20;74.40;;;;;;5029713;28;20032;-71
2021/09/06 00:05:16;;;;;;;8.25;2.22;;;12.20;74.40;;;;;;5025082;28;20028;-71
2021/09/06 00:07:45;;;;;;;8.45;2.97;;;12.20;74.60;;;;;;5027371;28;20091;-67
2021/09/06 00:10:20;;;;;;;7.97;2.00;;;12.20;74.60;;;;;;5027345;28;20448;-68
2021/09/06 00:12:47;;;;;;;8.32;2.00;;;12.20;74.70;;;;;;5028764;28;20373;-66
2021/09/06 00:15:14;;;;;;;6.00;2.10;;;12.30;74.90;;;;;;5028567;28;20518;-67
2021/09/06 00:17:41;;;;;;;8.32;2.60;;;12.30;75.00;;;;;;5028147;28;20064;-71
2021/09/06 00:20:08;;;;;;;4.50;2.38;;;12.30;75.20;;;;;;5027788;28;20396;-68
2021/09/06 00:22:34;;;;;;;4.93;2.63;;;12.30;75.20;;;;;;5032260;28;20088;-66
2021/09/06 00:25:01;;;;;;;8.55;3.03;;;12.40;75.10;;;;;;5025366;28;20376;-68
2021/09/06 00:27:27;;;;;;;6.28;3.08;;;12.50;75.10;;;;;;5031111;28;20450;-67
2021/09/06 00:29:53;;;;;;;6.72;3.90;;;12.50;75.00;;;;;;5029729;28;20362;-67
2021/09/06 00:32:20;;;;;;;6.50;3.10;;;12.50;74.80;;;;;;5028022;28;20384;-68
2021/09/06 00:34:46;;;;;;;6.15;3.03;;;12.50;74.80;;;;;;5027667;28;20015;-67
2021/09/06 00:37:13;;;;;;;8.00;3.08;;;12.60;74.80;;;;;;5028017;28;20095;-68
2021/09/06 00:39:39;;;;;;;6.15;4.15;;;12.60;74.90;;;;;;5031343;28;20116;-67
2021/09/06 00:42:06;;;;;;;8.82;3.40;;;12.70;74.90;;;;;;5027786;28;20025;-67
2021/09/06 00:44:32;;;;;;;8.85;3.70;;;12.70;74.80;;;;;;5028950;28;20474;-67
2021/09/06 00:47:00;;;;;;;7.25;4.25;;;12.70;74.60;;;;;;5029271;28;20029;-69
2021/09/06 00:49:27;;;;;;;5.78;3.10;;;12.70;74.70;;;;;;5029651;28;20021;-67
2021/09/06 00:51:55;;;;;;;9.68;3.42;;;12.80;75.00;;;;;;5029398;28;20028;-66
2021/09/06 00:54:21;;;;;;;6.32;2.25;;;12.70;75.30;;;;;;5026167;28;20586;-68
2021/09/06 00:56:48;;;;;;;8.98;3.35;;;12.70;75.00;;;;;;5030930;28;20055;-73
2021/09/06 00:59:15;;;;;;;7.85;2.90;;;12.80;75.10;;;;;;5026411;28;20030;-70
2021/09/06 01:01:41;;;;;;;7.90;3.47;;;12.80;75.20;;;;;;5029740;28;20109;-66
2021/09/06 01:04:08;;;;;;;7.05;2.25;;;12.80;75.60;;;;;;5025500;28;20030;-66
2021/09/06 01:06:34;;;;;;;8.10;3.63;;;12.80;75.80;;;;;;5029602;28;20030;-69
2021/09/06 01:09:01;;;;;;;8.05;2.88;;;12.90;75.80;;;;;;5029089;28;20021;-72
2021/09/06 01:11:27;;;;;;;7.00;3.03;;;12.80;75.60;;;;;;5025191;28;20120;-66
2021/09/06 01:13:54;;;;;;;7.10;2.97;;;12.90;75.60;;;;;;5030072;28;20021;-69
2021/09/06 01:16:23;;;;;;;4.97;1.85;;;12.90;75.70;;;;;;5026139;28;20029;-66
2021/09/06 01:18:51;;;;;;;4.50;2.15;;;12.90;75.60;;;;;;5031653;28;20494;-66
2021/09/06 01:21:17;;;;;;;10.77;3.83;;;12.90;75.90;;;;;;5027472;28;20048;-76
2021/09/06 01:23:44;;;;;;;5.65;3.10;;;12.90;76.80;;;;;;5028473;28;20032;-69
2021/09/06 01:26:11;;;;;;;6.63;2.17;;;12.90;77.30;;;;;;5028167;28;20401;-66
2021/09/06 01:28:37;;;;;;;7.00;2.20;;;12.90;77.60;;;;;;5029782;28;20102;-72
2021/09/06 01:31:04;;;;;;;5.60;1.70;;;12.80;77.40;;;;;;5027839;28;20021;-66
2021/09/06 01:33:31;;;;;;;5.65;1.98;;;12.90;77.60;;;;;;5026523;28;20049;-70
2021/09/06 01:35:57;;;;;;;4.82;2.08;;;12.90;77.80;;;;;;5028975;28;20053;-73
2021/09/06 01:38:24;;;;;;;6.93;1.75;;;12.80;78.00;;;;;;5024690;28;20039;-76
2021/09/06 01:40:50;;;;;;;3.13;1.42;;;12.80;78.10;;;;;;5026761;28;20025;-80
2021/09/06 01:43:17;;;;;;;6.18;2.03;;;12.80;78.00;;;;;;5028530;28;20079;-77
2021/09/06 01:45:43;;;;;;;5.80;2.15;;;12.80;77.90;;;;;;5028831;28;20048;-79
2021/09/06 01:48:10;;;;;;;4.07;1.20;;;12.80;77.80;;;;;;5027629;28;20021;-76
2021/09/06 01:50:36;;;;;;;5.65;1.40;;;12.80;77.60;;;;;;5027790;28;20140;-73
2021/09/06 01:53:03;;;;;;;3.83;1.65;;;12.80;77.40;;;;;;5028859;28;20086;-77
2021/09/06 01:55:29;;;;;;;7.13;2.50;;;12.80;77.00;;;;;;5028259;28;20026;-73
2021/09/06 01:57:55;;;;;;;3.15;1.02;;;12.80;76.50;;;;;;5030058;28;20020;-70
2021/09/06 02:00:22;;;;;;;2.35;1.25;;;12.70;76.20;;;;;;5026194;28;20063;-71
2021/09/06 02:02:48;;;;;;;6.85;2.28;;;12.70;76.00;;;;;;5028637;28;20022;-81
2021/09/06 02:05:15;;;;;;;1.58;0.90;;;12.70;75.90;;;;;;5029178;28;20018;-80
2021/09/06 02:07:41;;;;;;;4.32;1.20;;;12.70;75.80;;;;;;5031001;28;20028;-77
2021/09/06 02:10:09;;;;;;;3.13;0.98;;;12.60;75.70;;;;;;5024991;28;20373;-67
2021/09/06 02:12:35;;;;;;;2.28;1.48;;;12.60;75.90;;;;;;5023812;28;20625;-67
2021/09/06 02:15:02;;;;;;;3.20;1.15;;;12.60;75.90;;;;;;5028446;28;20384;-80
2021/09/06 02:17:29;;;;;;;2.72;1.00;;;12.60;75.90;;;;;;5027502;28;20025;-76
2021/09/06 02:19:56;;;;;;;4.78;1.13;;;12.50;75.70;;;;;;5029452;28;20037;-66
2021/09/06 02:22:23;;;;;;;3.97;1.23;;;12.50;76.00;;;;;;5025697;28;20084;-68
2021/09/06 02:24:50;;;;;;;2.40;0.90;;;12.40;76.30;;;;;;5028923;28;20033;-68
2021/09/06 02:27:16;;;;;;;2.38;1.20;;;12.40;76.50;;;;;;5028119;28;20022;-69
2021/09/06 02:29:43;;;;;;;6.93;1.17;;;12.30;76.20;;;;;;5028495;28;20029;-67
2021/09/06 02:32:09;;;;;;;1.50;0.77;;;12.20;76.70;;;;;;5026298;28;20044;-66
2021/09/06 02:34:36;;;;;;;1.33;0.65;;;12.20;75.70;;;;;;5025785;28;20109;-70
2021/09/06 02:37:03;;;;;;;2.55;2.08;;;12.20;75.20;;;;;;5027555;28;20026;-71
2021/09/06 02:39:29;;;;;;;2.38;0.90;;;12.20;74.70;;;;;;5024993;28;20037;-66
2021/09/06 02:41:58;;;;;;;5.13;1.55;;;12.10;74.60;;;;;;5027465;28;20534;-74
2021/09/06 02:44:28;;;;;;;3.00;0.90;;;12.10;74.60;;;;;;5027102;28;20108;-67
2021/09/06 02:46:56;;;;;;;3.15;0.73;;;12.10;74.30;;;;;;5027359;28;20101;-72
2021/09/06 02:49:22;;;;;;;1.33;0.47;;;12.00;74.10;;;;;;5026906;28;20033;-72
2021/09/06 02:51:49;;;;;;;3.15;0.40;;;12.00;74.30;;;;;;5026334;28;20017;-71
2021/09/06 02:54:16;;;;;;;1.88;0.60;;;12.00;74.40;;;;;;5027846;28;20021;-71
2021/09/06 02:56:44;;;;;;;2.40;0.45;;;12.00;74.10;;;;;;5027190;28;20050;-69
2021/09/06 02:59:11;;;;;;;1.08;0.40;;;11.90;73.70;;;;;;5029230;28;20087;-71
2021/09/06 03:01:38;;;;;;;1.70;0.47;;;11.90;73.40;;;;;;5027408;28;20018;-71
2021/09/06 03:04:04;;;;;;;3.92;0.98;;;11.90;73.50;;;;;;5028274;28;20583;-75
2021/09/06 03:06:31;;;;;;;1.15;0.30;;;11.90;73.20;;;;;;5023587;28;20125;-75
2021/09/06 03:09:00;;;;;;;2.17;0.60;;;11.80;73.10;;;;;;5026119;28;20039;-80
2021/09/06 03:11:27;;;;;;;3.47;0.73;;;11.80;73.40;;;;;;5025710;28;20045;-67
2021/09/06 03:13:55;;;;;;;2.25;0.95;;;11.80;73.50;;;;;;5025910;28;20029;-79
2021/09/06 03:16:22;;;;;;;3.55;0.93;;;11.80;73.60;;;;;;5026427;28;20013;-67
2021/09/06 03:18:52;;;;;;;2.95;1.38;;;11.80;73.40;;;;;;5024725;28;20071;-66
2021/09/06 03:21:18;;;;;;;1.92;0.90;;;11.80;73.30;;;;;;5021289;28;20048;-72
2021/09/06 03:23:45;;;;;;;5.32;2.00;;;11.80;73.40;;;;;;5030013;28;20053;-66
2021/09/06 03:26:14;;;;;;;3.03;0.95;;;11.80;73.50;;;;;;5026223;28;20017;-71
2021/09/06 03:28:43;;;;;;;2.15;0.80;;;11.80;74.10;;;;;;5027170;28;20022;-69
2021/09/06 03:31:10;;;;;;;5.97;1.48;;;11.80;74.30;;;;;;5024964;28;20067;-70
2021/09/06 03:33:37;;;;;;;3.05;1.10;;;11.80;74.60;;;;;;5023638;28;20117;-76
2021/09/06 03:36:04;;;;;;;2.83;1.27;;;11.80;74.70;;;;;;5029259;28;20072;-82
2021/09/06 03:38:31;;;;;;;2.65;1.08;;;11.70;74.80;;;;;;5028864;28;20033;-83
2021/09/06 03:40:57;;;;;;;6.68;1.60;;;11.70;74.90;;;;;;5031018;28;20027;-72
2021/09/06 03:43:24;;;;;;;7.20;1.50;;;11.70;75.00;;;;;;5030692;28;20014;-79
2021/09/06 03:45:50;;;;;;;4.78;1.67;;;11.60;75.20;;;;;;5030679;28;20029;-72
2021/09/06 03:48:17;;;;;;;4.65;1.27;;;11.60;75.60;;;;;;5031758;28;20511;-75
2021/09/06 03:50:43;;;;;;;2.55;1.52;;;11.50;75.60;;;;;;5033089;28;20542;-69
2021/09/06 03:53:10;;;;;;;2.42;1.13;;;11.40;75.60;;;;;;5026936;28;20044;-76
2021/09/06 03:55:37;;;;;;;7.50;4.30;;;11.40;75.90;;;;;;5027357;28;20050;-74
2021/09/06 03:58:03;;;;;;;31.10;20.73;;;11.40;76.60;;;;;;5029980;28;20022;-65
2021/09/06 04:00:30;;;;;;;16.33;11.90;;;11.40;76.90;;;;;;5031082;28;20067;-74
2021/09/06 04:02:57;;;;;;;6.00;2.65;;;11.30;76.90;;;;;;5030358;28;20377;-66
2021/09/06 04:05:23;;;;;;;2.63;1.45;;;11.40;77.00;;;;;;5030118;28;20029;-66
2021/09/06 04:07:50;;;;;;;4.28;1.77;;;11.30;77.20;;;;;;5030383;28;20028;-75
2021/09/06 04:10:16;;;;;;;5.93;2.83;;;11.40;77.50;;;;;;5025374;28;20112;-66
2021/09/06 04:12:43;;;;;;;3.45;2.15;;;11.40;77.80;;;;;;5028043;28;20029;-73
2021/09/06 04:15:10;;;;;;;3.97;2.10;;;11.40;77.90;;;;;;5031274;28;20014;-70
2021/09/06 04:17:37;;;;;;;6.13;2.58;;;11.50;78.10;;;;;;5028484;28;20471;-66
2021/09/06 04:20:05;;;;;;;3.33;2.10;;;11.50;77.90;;;;;;5027179;28;20033;-73
2021/09/06 04:22:32;;;;;;;6.03;1.85;;;11.50;78.20;;;;;;5026346;28;20068;-70
2021/09/06 04:25:01;;;;;;;3.20;1.52;;;11.50;78.40;;;;;;5028974;28;20108;-68
2021/09/06 04:27:28;;;;;;;6.80;1.38;;;11.50;78.60;;;;;;5029340;28;20017;-68
2021/09/06 04:29:55;;;;;;;3.22;1.33;;;11.60;78.90;;;;;;5032620;28;20029;-67
2021/09/06 04:32:21;;;;;;;3.33;1.92;;;11.60;79.10;;;;;;5028770;28;20033;-68
2021/09/06 04:34:47;;;;;;;8.63;4.43;;;11.70;79.50;;;;;;5029782;28;20014;-71
2021/09/06 04:37:14;;;;;;;51.72;33.17;;;11.70;79.90;;;;;;5027369;28;20026;-75
2021/09/06 04:39:40;;;;;;;14.73;7.32;;;11.70;80.30;;;;;;5030340;28;20532;-69
2021/09/06 04:42:07;;;;;;;4.80;2.25;;;11.80;80.70;;;;;;5027479;28;20014;-72
2021/09/06 04:44:33;;;;;;;3.33;0.93;;;11.80;81.00;;;;;;5028760;28;20025;-74
2021/09/06 04:47:00;;;;;;;2.17;0.77;;;11.90;81.20;;;;;;5030191;28;20022;-80
2021/09/06 04:49:26;;;;;;;4.68;1.02;;;12.00;81.30;;;;;;5029546;28;20024;-78
2021/09/06 04:51:53;;;;;;;3.42;0.93;;;12.00;81.20;;;;;;5029242;28;20029;-77
2021/09/06 04:54:20;;;;;;;3.60;0.77;;;12.00;81.30;;;;;;5025464;28;20033;-69
2021/09/06 04:56:47;;;;;;;1.70;1.17;;;12.00;81.30;;;;;;5027727;28;20037;-65
2021/09/06 04:59:16;;;;;;;2.95;1.90;;;12.00;81.30;;;;;;5029990;28;20037;-72
2021/09/06 05:01:42;;;;;;;3.08;1.67;;;12.00;81.40;;;;;;5028770;28;20799;-68
2021/09/06 05:04:09;;;;;;;3.20;1.30;;;12.00;81.40;;;;;;5027977;28;20029;-75
2021/09/06 05:06:35;;;;;;;3.85;1.98;;;12.00;81.40;;;;;;5030004;28;20108;-75
2021/09/06 05:09:02;;;;;;;4.50;2.60;;;12.00;81.60;;;;;;5028532;28;20021;-68
2021/09/06 05:11:30;;;;;;;10.10;4.38;;;11.90;81.60;;;;;;5025462;28;20095;-76
2021/09/06 05:13:57;;;;;;;6.78;2.80;;;11.90;81.90;;;;;;5025562;28;20020;-78
2021/09/06 05:16:23;;;;;;;6.80;2.92;;;11.90;81.90;;;;;;5026604;28;20017;-70
2021/09/06 05:18:50;;;;;;;7.60;3.42;;;11.90;81.80;;;;;;5029318;28;20044;-69
2021/09/06 05:21:16;;;;;;;6.65;3.00;;;11.90;81.80;;;;;;5027055;28;20037;-66
2021/09/06 05:23:43;;;;;;;11.73;3.88;;;11.90;81.80;;;;;;5026348;28;20032;-70
2021/09/06 05:26:10;;;;;;;9.55;4.63;;;11.90;82.00;;;;;;5028557;28;20021;-67
2021/09/06 05:28:36;;;;;;;4.85;2.97;;;11.90;82.00;;;;;;5027026;28;20468;-67
2021/09/06 05:31:05;;;;;;;4.18;2.50;;;11.80;82.00;;;;;;5027849;28;20024;-66
2021/09/06 05:33:32;;;;;;;7.63;4.18;;;11.80;82.20;;;;;;5026437;28;20021;-64
2021/09/06 05:35:58;;;;;;;8.40;3.90;;;11.80;82.10;;;;;;5027659;28;20025;-65
2021/09/06 05:38:25;;;;;;;7.88;3.08;;;11.80;82.10;;;;;;5024934;28;20048;-69
2021/09/06 05:40:52;;;;;;;7.95;3.85;;;11.80;82.10;;;;;;5023155;28;20122;-66
2021/09/06 05:43:18;;;;;;;6.10;3.83;;;11.80;82.30;;;;;;5026419;28;20013;-68
2021/09/06 05:45:45;;;;;;;9.85;3.38;;;11.80;82.40;;;;;;5024623;28;20017;-78
2021/09/06 05:48:18;;;;;;;4.88;3.17;;;11.80;82.70;;;;;;5025357;28;20037;-77
2021/09/06 05:50:45;;;;;;;4.72;3.15;;;11.80;82.80;;;;;;5026342;28;20502;-74
2021/09/06 05:53:14;;;;;;;6.85;2.75;;;11.80;83.00;;;;;;5023035;28;20041;-69
2021/09/06 05:55:45;;;;;;;7.10;3.28;;;11.80;83.20;;;;;;5035601;28;20418;-73
2021/09/06 05:58:11;;;;;;;3.88;2.78;;;11.90;83.50;;;;;;5024979;28;20034;-69
2021/09/06 06:00:38;;;;;;;7.13;3.88;;;11.90;83.80;;;;;;5018223;28;20460;-73
2021/09/06 06:03:08;;;;;;;8.60;3.92;;;11.90;84.00;;;;;;5025623;28;20040;-75
2021/09/06 06:05:35;;;;;;;8.90;4.25;;;12.00;84.40;;;;;;5024687;28;20014;-69
2021/09/06 06:08:01;;;;;;;7.20;4.55;;;12.00;84.60;;;;;;5026349;28;20017;-74
2021/09/06 06:10:28;;;;;;;9.57;4.38;;;12.00;84.90;;;;;;5022248;28;20346;-70
2021/09/06 06:12:54;;;;;;;10.30;5.10;;;12.10;85.00;;;;;;5024211;28;20469;-75
2021/09/06 06:15:21;;;;;;;9.23;4.80;;;12.20;85.00;;;;;;5023603;28;20021;-66
2021/09/06 06:17:47;;;;;;;10.73;6.22;;;12.20;85.10;;;;;;5025992;28;20032;-76
2021/09/06 06:20:14;;;;;;;10.80;4.03;;;12.20;85.20;;;;;;5024175;28;20045;-68
2021/09/06 06:22:40;;;;;;;4.53;3.55;;;12.30;85.40;;;;;;5024992;28;20523;-66
2021/09/06 06:25:07;;;;;;;5.15;3.00;;;12.30;85.50;;;;;;5025231;28;20605;-66
2021/09/06 06:27:34;;;;;;;6.25;2.90;;;12.30;85.50;;;;;;5023429;28;20025;-75
2021/09/06 06:30:00;;;;;;;8.68;3.15;;;12.40;85.30;;;;;;5024378;28;20029;-75
2021/09/06 06:32:27;;;;;;;7.20;4.55;;;12.40;85.20;;;;;;5033223;28;20817;-74
2021/09/06 06:34:53;;;;;;;7.25;4.05;;;12.50;85.10;;;;;;5025869;28;20484;-66
2021/09/06 06:37:20;;;;;;;9.10;4.38;;;12.50;85.20;;;;;;5025285;28;20014;-68
2021/09/06 06:39:46;;;;;;;6.40;3.22;;;12.50;85.20;;;;;;5026256;28;20069;-66
2021/09/06 06:42:13;;;;;;;5.45;4.05;;;12.50;85.10;;;;;;5024290;28;20022;-67
2021/09/06 06:44:40;;;;;;;6.45;3.03;;;12.50;85.10;;;;;;5027941;28;20025;-69
2021/09/06 06:47:10;;;;;;;7.55;2.78;;;12.60;85.20;;;;;;5026367;28;20037;-70
2021/09/06 06:49:36;;;;;;;3.70;2.55;;;12.60;85.20;;;;;;5026477;28;20407;-70
2021/09/06 06:52:03;;;;;;;6.13;2.38;;;12.60;85.20;;;;;;5026951;28;20025;-66
2021/09/06 06:54:30;;;;;;;3.15;1.63;;;12.60;85.30;;;;;;5024632;28;20116;-67
2021/09/06 06:56:56;;;;;;;2.58;1.73;;;12.70;85.30;;;;;;5026070;28;20049;-77
2021/09/06 06:59:23;;;;;;;4.07;2.05;;;12.80;85.30;;;;;;5023264;28;20041;-68
2021/09/06 07:01:49;;;;;;;4.53;2.53;;;12.80;85.30;;;;;;5027568;28;20028;-74
2021/09/06 07:04:16;;;;;;;6.20;2.75;;;12.90;85.10;;;;;;5025325;28;20025;-68
2021/09/06 07:06:42;;;;;;;5.88;3.28;;;12.90;84.70;;;;;;5024765;28;20030;-67
2021/09/06 07:09:09;;;;;;;7.18;5.50;;;13.00;84.50;;;;;;5031145;28;20634;-70
2021/09/06 07:11:37;;;;;;;7.47;4.82;;;13.00;84.20;;;;;;5031686;28;20100;-70
2021/09/06 07:14:03;;;;;;;4.63;3.75;;;13.10;84.10;;;;;;5029413;28;20032;-66
2021/09/06 07:16:30;;;;;;;8.02;3.88;;;13.20;83.90;;;;;;5028860;28;20469;-68
2021/09/06 07:18:56;;;;;;;6.40;3.88;;;13.30;83.50;;;;;;5030029;28;20025;-70
2021/09/06 07:21:23;;;;;;;14.70;5.05;;;13.40;83.10;;;;;;5029744;28;20465;-67
2021/09/06 07:23:53;;;;;;;7.57;3.50;;;13.40;82.40;;;;;;5028696;28;20025;-71
2021/09/06 07:26:19;;;;;;;7.78;4.35;;;13.40;81.90;;;;;;5029943;28;20037;-73
2021/09/06 07:28:46;;;;;;;4.63;3.53;;;13.40;81.80;;;;;;5028119;28;20067;-69
2021/09/06 07:31:12;;;;;;;5.65;3.58;;;13.40;82.30;;;;;;5029641;28;20103;-75
2021/09/06 07:33:41;;;;;;;5.22;2.35;;;13.40;82.40;;;;;;5030729;28;20030;-77
2021/09/06 07:36:08;;;;;;;2.40;1.50;;;13.40;82.90;;;;;;5031026;28;20048;-72
2021/09/06 07:38:34;;;;;;;6.78;1.45;;;13.40;83.30;;;;;;5025887;28;20504;-71
2021/09/06 07:41:01;;;;;;;4.82;1.73;;;13.40;83.50;;;;;;5028453;28;20029;-72
2021/09/06 07:43:27;;;;;;;4.22;1.33;;;13.40;83.60;;;;;;5025956;28;20025;-67
2021/09/06 07:45:54;;;;;;;5.78;1.00;;;13.40;83.80;;;;;;5024512;28;20477;-75
2021/09/06 07:48:20;;;;;;;4.50;1.30;;;13.40;84.00;;;;;;5030493;28;20116;-76
2021/09/06 07:50:48;;;;;;;5.55;1.50;;;13.50;84.10;;;;;;5028543;28;20037;-70
2021/09/06 07:53:16;;;;;;;4.68;1.75;;;13.50;84.10;;;;;;5029618;28;20444;-73
2021/09/06 07:55:43;;;;;;;4.50;2.28;;;13.50;84.10;;;;;;5027837;28;20060;-66
2021/09/06 07:58:10;;;;;;;2.70;1.17;;;13.60;84.00;;;;;;5027882;28;20485;-76
2021/09/06 08:00:36;;;;;;;3.03;1.27;;;13.60;83.60;;;;;;5028164;28;20384;-77
2021/09/06 08:03:03;;;;;;;3.42;1.73;;;13.70;83.50;;;;;;5028718;28;20661;-77
2021/09/06 08:05:30;;;;;;;5.10;1.20;;;13.70;83.30;;;;;;5030329;28;20039;-70
2021/09/06 08:07:57;;;;;;;3.80;1.33;;;13.80;83.00;;;;;;5027187;28;20026;-66
2021/09/06 08:10:23;;;;;;;4.53;1.48;;;13.80;82.50;;;;;;5029474;28;20014;-67
2021/09/06 08:12:50;;;;;;;2.85;1.00;;;13.90;82.10;;;;;;5026634;28;20022;-78
2021/09/06 08:15:17;;;;;;;1.70;0.88;;;13.90;81.50;;;;;;5029303;28;20029;-68
2021/09/06 08:17:44;;;;;;;3.65;1.27;;;13.90;81.00;;;;;;5029613;28;20096;-67
2021/09/06 08:20:15;;;;;;;3.58;0.98;;;13.90;80.80;;;;;;5027657;28;20134;-70
2021/09/06 08:22:42;;;;;;;1.23;0.60;;;14.00;80.60;;;;;;5030576;28;20030;-68
2021/09/06 08:25:10;;;;;;;2.78;1.10;;;14.10;80.60;;;;;;5030926;28;20013;-67
2021/09/06 08:27:38;;;;;;;1.73;0.93;;;14.10;79.80;;;;;;5031656;28;20018;-68
2021/09/06 08:30:06;;;;;;;3.88;1.20;;;14.20;79.40;;;;;;5028216;28;20527;-67
2021/09/06 08:32:33;;;;;;;4.63;1.15;;;14.30;79.10;;;;;;5028703;28;20062;-68
2021/09/06 08:34:59;;;;;;;2.15;1.08;;;14.30;78.50;;;;;;5029220;28;20062;-67
2021/09/06 08:37:26;;;;;;;1.75;1.00;;;14.40;78.20;;;;;;5025441;28;20056;-66
2021/09/06 08:39:53;;;;;;;1.65;1.10;;;14.50;78.20;;;;;;5028262;28;20069;-67
2021/09/06 08:42:19;;;;;;;4.38;1.10;;;14.60;78.20;;;;;;5027367;28;20021;-66
2021/09/06 08:44:46;;;;;;;2.47;1.25;;;14.70;78.10;;;;;;5029665;28;20477;-69
2021/09/06 08:47:14;;;;;;;2.38;0.80;;;14.80;76.60;;;;;;5026575;28;20476;-77
2021/09/06 08:49:42;;;;;;;1.35;0.75;;;14.90;75.90;;;;;;5029573;28;20017;-67
2021/09/06 08:52:08;;;;;;;4.35;1.48;;;14.90;75.60;;;;;;5030008;28;20385;-68
2021/09/06 08:54:35;;;;;;;4.70;1.33;;;15.00;74.80;;;;;;5029996;28;20120;-69
2021/09/06 08:57:02;;;;;;;2.85;1.23;;;15.10;74.30;;;;;;5029460;28;20038;-67
2021/09/06 08:59:28;;;;;;;2.05;0.90;;;15.20;73.90;;;;;;5027760;28;20072;-71
2021/09/06 09:01:54;;;;;;;2.33;1.02;;;15.20;73.30;;;;;;5030227;28;20024;-70
2021/09/06 09:04:23;;;;;;;5.25;0.95;;;15.30;72.50;;;;;;5025825;28;20435;-66
2021/09/06 09:07:00;;;;;;;4.35;1.10;;;15.40;71.80;;;;;;5030683;28;20036;-72
2021/09/06 09:09:37;;;;;;;2.92;1.00;;;15.50;71.20;;;;;;5023440;28;20033;-67
2021/09/06 09:12:18;;;;;;;5.90;1.52;;;15.50;70.80;;;;;;5027576;28;20519;-67
2021/09/06 09:14:51;;;;;;;3.80;1.33;;;15.60;70.60;;;;;;5026900;28;20025;-67
2021/09/06 09:17:18;;;;;;;4.45;1.35;;;15.70;70.50;;;;;;5030996;28;20044;-72
2021/09/06 09:20:25;;;;;;;4.90;2.45;;;15.80;69.70;;;;;;5025390;28;20633;-66
2021/09/06 09:23:09;;;;;;;4.75;1.10;;;15.70;69.10;;;;;;5043618;28;20541;-70
2021/09/06 09:25:36;;;;;;;5.35;1.63;;;15.80;68.70;;;;;;5026748;28;20100;-67
2021/09/06 09:28:04;;;;;;;2.10;1.83;;;15.80;68.80;;;;;;5027123;28;20028;-67
2021/09/06 09:30:33;;;;;;;3.15;1.40;;;15.90;69.00;;;;;;5025843;28;20029;-68
2021/09/06 09:33:13;;;;;;;4.78;1.58;;;15.90;69.30;;;;;;5027676;28;20489;-66
2021/09/06 09:35:40;;;;;;;2.78;1.52;;;15.90;69.00;;;;;;5026124;28;20045;-66
2021/09/06 09:38:09;;;;;;;7.28;1.60;;;16.00;68.00;;;;;;5026044;28;20441;-66
2021/09/06 09:40:46;;;;;;;2.95;1.30;;;16.00;67.10;;;;;;5026745;28;20091;-66
2021/09/06 09:43:12;;;;;;;4.22;1.10;;;16.10;66.60;;;;;;5025360;28;20405;-67
2021/09/06 09:45:39;;;;;;;2.60;0.73;;;16.20;66.10;;;;;;5026288;28;20388;-71
2021/09/06 09:48:07;;;;;;;3.83;1.05;;;16.30;65.10;;;;;;5025117;28;20025;-69
2021/09/06 09:50:35;;;;;;;4.72;1.25;;;16.30;64.00;;;;;;5024882;28;20021;-66
2021/09/06 09:53:02;;;;;;;4.45;1.08;;;16.50;62.90;;;;;;5025147;28;20017;-66
2021/09/06 09:55:34;;;;;;;3.92;0.98;;;16.50;61.70;;;;;;5023877;28;20029;-68
2021/09/06 09:58:01;;;;;;;3.10;0.98;;;16.60;60.60;;;;;;5025978;28;20037;-66
2021/09/06 10:00:28;;;;;;;2.28;0.90;;;16.70;60.60;;;;;;5024757;28;20029;-66
2021/09/06 10:03:03;;;;;;;5.03;1.00;;;16.70;60.30;;;;;;5022412;28;20045;-74
2021/09/06 10:05:31;;;;;;;2.25;0.90;;;16.80;60.60;;;;;;5026582;28;20021;-66
2021/09/06 10:08:01;;;;;;;4.05;0.85;;;16.90;61.30;;;;;;5022949;28;20426;-69
2021/09/06 10:10:28;;;;;;;6.55;1.00;;;16.90;62.10;;;;;;5026135;28;20108;-67
2021/09/06 10:13:12;;;;;;;6.53;0.93;;;16.80;63.80;;;;;;5023343;28;20036;-66
2021/09/06 10:15:41;;;;;;;2.45;1.08;;;16.70;64.20;;;;;;5027086;28;20047;-77
2021/09/06 10:18:19;;;;;;;4.20;1.20;;;16.50;65.20;;;;;;5026150;28;20048;-78
2021/09/06 10:20:47;;;;;;;2.42;0.60;;;16.40;66.50;;;;;;5024928;28;21420;-68
2021/09/06 10:23:14;;;;;;;3.85;1.65;;;16.40;67.10;;;;;;5025779;28;20025;-66
2021/09/06 10:25:42;;;;;;;2.97;1.33;;;16.40;67.60;;;;;;5027731;28;20033;-73
2021/09/06 10:28:13;;;;;;;1.05;0.57;;;16.40;67.10;;;;;;5029125;28;20548;-66
2021/09/06 10:30:48;;;;;;;1.85;0.60;;;16.40;66.00;;;;;;5028153;28;20033;-67
2021/09/06 10:33:36;;;;;;;1.77;0.52;;;16.40;64.80;;;;;;5027015;28;20033;-76
2021/09/06 10:36:20;;;;;;;3.15;0.82;;;16.40;63.40;;;;;;5027163;28;20040;-76
2021/09/06 10:39:05;;;;;;;1.08;0.50;;;16.50;62.40;;;;;;5026045;28;20029;-67
2021/09/06 10:41:41;;;;;;;6.85;2.10;;;16.70;61.30;;;;;;5024720;28;20117;-78
2021/09/06 10:44:09;;;;;;;2.47;1.15;;;16.90;60.80;;;;;;5028805;28;20056;-70
2021/09/06 10:46:35;;;;;;;3.17;0.95;;;17.00;60.70;;;;;;5031927;28;20109;-74
2021/09/06 10:49:05;;;;;;;2.45;0.60;;;17.10;59.60;;;;;;5030791;28;20037;-66
2021/09/06 10:51:33;;;;;;;5.45;1.27;;;17.10;57.50;;;;;;5029956;28;20463;-67
2021/09/06 10:54:10;;;;;;;1.83;0.73;;;17.00;56.60;;;;;;5029734;28;20101;-67
2021/09/06 10:56:37;;;;;;;1.17;0.60;;;17.00;57.00;;;;;;5028560;28;20077;-66
2021/09/06 10:59:03;;;;;;;2.03;0.60;;;16.90;57.40;;;;;;5030254;28;20029;-66
2021/09/06 11:01:36;;;;;;;3.03;0.60;;;16.90;57.40;;;;;;5030919;28;20033;-67
2021/09/06 11:04:03;;;;;;;2.10;0.57;;;16.90;57.90;;;;;;5026121;28;20018;-67
2021/09/06 11:06:30;;;;;;;2.22;0.50;;;17.00;58.60;;;;;;5029872;28;20021;-68
2021/09/06 11:09:00;;;;;;;1.13;0.47;;;17.00;58.90;;;;;;5030093;28;20029;-66
2021/09/06 11:11:32;;;;;;;3.45;0.57;;;17.10;57.70;;;;;;5029352;28;20029;-68
2021/09/06 11:13:58;;;;;;;1.25;0.50;;;17.00;57.50;;;;;;5028865;28;20028;-67
2021/09/06 11:16:36;;;;;;;1.95;0.60;;;17.00;57.40;;;;;;5030994;28;20073;-66
2021/09/06 11:19:11;;;;;;;1.02;0.40;;;17.00;57.80;;;;;;5028616;28;20484;-69
2021/09/06 11:21:37;;;;;;;5.25;0.75;;;17.00;59.10;;;;;;5027830;28;20040;-74
2021/09/06 11:24:04;;;;;;;4.13;0.70;;;17.10;60.00;;;;;;5032044;28;20029;-69
2021/09/06 11:26:33;;;;;;;5.00;0.60;;;17.10;59.50;;;;;;5031771;28;20075;-70
2021/09/06 11:29:00;;;;;;;3.30;1.08;;;17.30;59.80;;;;;;5031970;28;20025;-67
2021/09/06 11:31:28;;;;;;;2.63;0.93;;;17.30;60.40;;;;;;5029027;28;20030;-67
2021/09/06 11:34:04;;;;;;;1.65;0.60;;;17.30;59.30;;;;;;5030079;28;20014;-65
2021/09/06 11:36:30;;;;;;;0.98;0.30;;;17.30;58.50;;;;;;5032170;28;20026;-64
2021/09/06 11:38:58;;;;;;;0.47;0.30;;;17.30;58.60;;;;;;5028214;28;20121;-73
2021/09/06 11:41:25;;;;;;;0.73;0.30;;;17.20;58.60;;;;;;5031397;28;20027;-64
2021/09/06 11:43:53;;;;;;;0.32;0.20;;;17.10;57.50;;;;;;5030280;28;20012;-63
2021/09/06 11:46:21;;;;;;;1.90;0.40;;;17.10;57.30;;;;;;5031667;28;20021;-67
2021/09/06 11:48:49;;;;;;;1.95;0.30;;;17.00;56.70;;;;;;5030593;28;20021;-66
2021/09/06 11:51:18;;;;;;;3.78;0.52;;;17.00;57.30;;;;;;5031537;28;20526;-67
2021/09/06 11:53:58;;;;;;;3.10;0.60;;;16.90;58.10;;;;;;5030505;28;20490;-67
2021/09/06 11:56:25;;;;;;;2.40;0.63;;;16.90;58.40;;;;;;5022523;28;20057;-67
2021/09/06 11:58:57;;;;;;;1.92;0.52;;;16.80;58.60;;;;;;5032868;28;20030;-67
2021/09/06 12:01:24;;;;;;;3.50;0.60;;;16.80;59.30;;;;;;5028253;28;20029;-75
2021/09/06 12:03:50;;;;;;;0.80;0.68;;;16.80;58.90;;;;;;5030355;28;20479;-66
2021/09/06 12:06:19;;;;;;;2.13;1.30;;;16.80;59.40;;;;;;5027385;28;20103;-66
2021/09/06 12:08:58;;;;;;;3.58;0.47;;;16.80;58.90;;;;;;5029653;28;20005;-71
2021/09/06 12:11:35;;;;;;;0.60;0.43;;;16.80;58.70;;;;;;5031946;28;20358;-68
2021/09/06 12:14:03;;;;;;;3.15;0.70;;;16.80;58.40;;;;;;5029773;28;20017;-66
2021/09/06 12:16:30;;;;;;;2.70;0.85;;;16.80;58.10;;;;;;5028644;28;20061;-67
2021/09/06 12:18:58;;;;;;;2.03;0.70;;;16.80;58.50;;;;;;5031906;28;20026;-68
2021/09/06 12:21:27;;;;;;;2.42;0.55;;;16.90;59.10;;;;;;5028411;28;20006;-68
2021/09/06 12:24:01;;;;;;;2.40;0.77;;;16.90;58.90;;;;;;5030148;28;20047;-68
2021/09/06 12:26:42;;;;;;;1.05;0.40;;;17.00;58.20;;;;;;5026553;28;20386;-65
2021/09/06 12:29:08;;;;;;;3.53;0.65;;;17.10;58.40;;;;;;5029880;28;20503;-70
2021/09/06 12:31:43;;;;;;;3.65;0.70;;;17.20;58.40;;;;;;5028389;28;20056;-66
2021/09/06 12:34:12;;;;;;;2.85;0.63;;;17.40;58.80;;;;;;5030069;28;20020;-67
2021/09/06 12:36:40;;;;;;;5.03;0.60;;;17.50;57.70;;;;;;5029515;28;20075;-66
2021/09/06 12:39:07;;;;;;;1.75;0.50;;;17.50;57.20;;;;;;5028440;28;20052;-68
2021/09/06 12:41:33;;;;;;;2.70;0.68;;;17.60;57.70;;;;;;5031345;28;20028;-66
2021/09/06 12:44:00;;;;;;;0.68;0.38;;;17.60;57.20;;;;;;5028200;28;20096;-67
2021/09/06 12:46:28;;;;;;;3.28;0.70;;;17.70;57.10;;;;;;5030843;28;20064;-73
2021/09/06 12:48:55;;;;;;;2.17;0.47;;;17.90;57.40;;;;;;5025892;28;20018;-66